Pella, IA

8:16 PM CST on November 24, 2014 (GMT -0600)
BankerWeather | Change Station
CLOSE
Current Station
Personal Weather Station
Location: Pella, IA
Elevation: 850 ft
Nearby Weather Stations

Elev 850 ft 41.42 °N, 92.92 °W | Updated 9 minutes ago

Overcast
Overcast
26.1 °F
Feels Like 20 °F
N
5.3
Wind Variable Wind from NW

Today
High -- | Low -- °F
--% Chance of Precip.
Yesterday
High -- | Low -- °F
Precip. -- in
7:10 AM 4:45 PM
Waxing Crescent, 8% visible
Pressure 29.89 in
Visibility 10.0 miles
Clouds Overcast 2800 ft
Windchill 20 °F
Dew Point 20 °F
Humidity 79%
Rainfall 0.00 in
Snow Depth Not available.
UV 0 out of 12
Pollen .10 out of 12
Air Quality Not available.
Flu Activity Not available.
METAR KPEA 250155Z AUTO 31015G21KT 10SM OVC028 M03/M07 A2989 RMK AO2 T10271075

More Conditions Fewer Conditions

Pressure 29.89 in
Visibility 10.0 miles
Clouds Overcast 2800 ft
Windchill 20 °F
Dew Point 20 °F
Humidity 79%
Rainfall 0.00 in
Snow Depth Not available.
UV 0 out of 12
Pollen .10 out of 12
Air Quality Not available.
Flu Activity Not available.
METAR KPEA 250155Z AUTO 31015G21KT 10SM OVC028 M03/M07 A2989 RMK AO2 T10271075

More Conditions Fewer Conditions

10-Day Weather Forecast

Almanac

Astronomy

Nov. 24, 2014 Rise Set
Actual Time
Civil Twilight
Nautical Twilight
Astronomical Twilight
Moon
Length of Visible Light
Length of Day
Tomorrow will be .
, % of the Moon is Illuminated

Today's Extremes

State Highs State Lows

Community

WunderPhotos

Upload Photos

1,773,460 photos uploaded!

WunderBlogs® & News

Nearby

Air Quality

  Air Quality AQ Index Pollutant
Not available.

Snow Depth

Station Depth Elevation

Earthquake Activity

City Distance Mag. Time & Date
Minimum magnitude displayed is 2.5.

Coastal Water Temperatures

Place Temperature

Nearby Weather Stations